Main page
METAR-TAF:

METAR-TAF

Airports :

Oil platform

A12-cpp, Netherlands

latitude: 55-23-57N, longitude: 3-48-37E, elevation: 33 m

Current weather observation

The report was made 14 minutes ago, at 00:25 UTC
Wind 19 kt from the East/Northeast
Temperature 8°C
Humidity 100%
Pressure 1027 hPa
Visibility: 1600 m
light rain, drizzle

METAR: EHAK 240025Z AUTO 07019KT 1600 -RADZ OVC000/// 08/08 Q1027 RERA REDZ W///H///

Time: 02:39 (00:39 UTC)


TAF: missing

Weather observations and forecasts of more than 4000 airports (METAR and TAF reports).

The available stations are represented by yellow and red dots on the map.

Hover mouse over dot to see the name of the station.

Then click to see weather observations and forecasts.

To change the map : click on the green buttons with a black cross to zoom in, on the green button with a dash to zoom out, or on the green arrows for adjacent maps.


METAR-TAF: